Arbon, Idaho
Current Conditions -  °F | °C
As of 11:53 AM on Saturday 20 Dec 2014 (Local Time) from KPIH Reporting Station
Overcast Overcast  
Wind Chill: 33°   Ceiling: 7000
Heat Index: 40°   Visibility: 10mi
Dew Point: 35°   Wind: 13mph
Humidity: 83%   Direction: 200°SSW
Pressure: 30.05"   Gusts: NA
Location:  42.46°N, 112.57°W
Report Text: KPIH 201853Z 20011KT 10SM SCT040 SCT050 OVC070 04/02 A3005 RMK AO2 SLP181 T00440017
Loading
Personal Weather Stations






























Interactive Weather Map New forecast layout! Learn more

10-Day Weather Forecast

Advertisements
Track Severe Weather on mobile